Tohshi — 3EJO5 — position and weather

sailwx.info

Track history (hours):
 
Tides and Currents Weather Stations Pressure Air Temp Water Temp Dewpoint Dewpoint Depression Visibility Wind Speed Wind Dir Waves Ship Positions

Tohshi

Last reported at 2015-Jan-15 14:31 UTC. Time now 2015-Feb-28 17:32 UTC.
Position N 01°59' E 102°13'.
Warning: this ship's position is 44 days out of date.

Length 333 m; beam 60 m.

Type: Tanker. MMSI: 372582000.

Date/timePositionNaut miles runAvg speedWind from/ knotsBaromVisibWave heightAir tempDewpointWater temp
2015-Jan-15 14:31N 01°59' E 102°13'1616.1
2015-Jan-15 13:32N 01°52' E 102°27'1716.9
2015-Jan-15 12:33N 01°44' E 102°42'72 7.0
2015-Jan-15 02:19N 01°09' E 103°44'5 6.6
2015-Jan-15 01:32N 01°11' E 103°49'1212.5
2015-Jan-15 00:33N 01°15' E 104°01'1211.8
2015-Jan-14 23:33N 01°17' E 104°12'  
2015-Jan-06 08:33N 34°42' E 139°36'9 8.5
2015-Jan-06 07:33N 34°50' E 139°39'8 8.0
2015-Jan-06 06:33N 34°58' E 139°40'8 8.2
2015-Jan-06 05:33N 35°05' E 139°44'8 7.6
2015-Jan-06 04:33N 35°13' E 139°46'1211.7
2015-Jan-06 03:33N 35°24' E 139°43'1212.2
2015-Jan-06 02:33N 35°31' E 139°55'1 1.2
2015-Jan-06 01:31N 35°31' E 139°56'0 0.0
2015-Jan-06 00:31N 35°31' E 139°56'0 0.0
2015-Jan-05 23:31N 35°31' E 139°56'0 0.0
2015-Jan-05 22:31N 35°31' E 139°56'0 0.0
2015-Jan-05 21:31N 35°31' E 139°56'0 0.0
2015-Jan-05 20:31N 35°31' E 139°56'0 0.0
2015-Jan-05 19:31N 35°31' E 139°56'0 0.0
2015-Jan-05 18:28N 35°31' E 139°56'0 0.0
2015-Jan-05 17:31N 35°31' E 139°56'0 0.0
2015-Jan-05 16:31N 35°31' E 139°56'0 0.0
2015-Jan-05 15:31N 35°31' E 139°56'0 0.0
2015-Jan-05 14:31N 35°31' E 139°56'  
Track history (hours):
 
Tides and Currents Weather Stations Pressure Air Temp Water Temp Dewpoint Dewpoint Depression Visibility Wind Speed Wind Dir Waves Ship Positions

Tohshi

Last reported at 2015-Jan-15 14:31 UTC. Time now 2015-Feb-28 17:32 UTC.
Position N 01°59' E 102°13'.
Warning: this ship's position is 44 days out of date.

Length 333 m; beam 60 m.

Type: Tanker. MMSI: 372582000.

Date/timePositionNaut miles runAvg speedWind from/ knotsBaromVisibWave heightAir tempDewpointWater temp
2015-Jan-15 14:31N 01°59' E 102°13'1616.1
2015-Jan-15 13:32N 01°52' E 102°27'1716.9
2015-Jan-15 12:33N 01°44' E 102°42'72 7.0
2015-Jan-15 02:19N 01°09' E 103°44'5 6.6
2015-Jan-15 01:32N 01°11' E 103°49'1212.5
2015-Jan-15 00:33N 01°15' E 104°01'1211.8
2015-Jan-14 23:33N 01°17' E 104°12'  
2015-Jan-06 08:33N 34°42' E 139°36'9 8.5
2015-Jan-06 07:33N 34°50' E 139°39'8 8.0
2015-Jan-06 06:33N 34°58' E 139°40'8 8.2
2015-Jan-06 05:33N 35°05' E 139°44'8 7.6
2015-Jan-06 04:33N 35°13' E 139°46'1211.7
2015-Jan-06 03:33N 35°24' E 139°43'1212.2
2015-Jan-06 02:33N 35°31' E 139°55'1 1.2
2015-Jan-06 01:31N 35°31' E 139°56'0 0.0
2015-Jan-06 00:31N 35°31' E 139°56'0 0.0
2015-Jan-05 23:31N 35°31' E 139°56'0 0.0
2015-Jan-05 22:31N 35°31' E 139°56'0 0.0
2015-Jan-05 21:31N 35°31' E 139°56'0 0.0
2015-Jan-05 20:31N 35°31' E 139°56'0 0.0
2015-Jan-05 19:31N 35°31' E 139°56'0 0.0
2015-Jan-05 18:28N 35°31' E 139°56'0 0.0
2015-Jan-05 17:31N 35°31' E 139°56'0 0.0
2015-Jan-05 16:31N 35°31' E 139°56'0 0.0
2015-Jan-05 15:31N 35°31' E 139°56'0 0.0
2015-Jan-05 14:31N 35°31' E 139°56'  

Dump ship's entire track history